Airport ICAO


14:32 UTC

16°C

Broken clouds


An affordable passengers' Moving Map for your aircraft. Made for the iPad and the iPhone
More information here

LFMN Cote D'Azur


Nice FRANCE   VFR


METAR LFMN 241400Z VRB01KT 9999 SCT033 BKN060 16/06 Q1020 NOSIG 0h32min

TAF LFMN 241400Z 2415/2521 12003KT 9999 SCT030 BKN060 BECMG 2416/2419 33010KT BECMG 2511/2513 24010KT BECMG 2518/2520 33010KT 0h32min





NOTAMS

OPEN